Terminal Aerodrome Forecast
Issued by NWS

Home | Current Version | Previous Version | Text Only | Print | Product List | Glossary On
Versions: 1 2 3 4 5 6 7 8 9 10 11 12 13 14 15
763
FTUS44 KCRP 302004 AAA
TAFALI
TAF AMD
KALI 302004Z 3020/3118 33009KT P6SM SKC
     FM302300 VRB06KT P6SM SKC=

USA.gov is the U.S. government's official web portal to all federal, state and local government web resources and services.